Meteo Giornale » Osservazioni meteo Italia » Gioia Del Colle

ore: 03:55 - Osservazioni Meteo Gioia Del Colle
Lat. 40° 46' N Lon. 16° 56' E Alt. 345 metri s.l.m.

sereno Europe/Rome

24 °C

Sereno

Temp. 24 Ore

21 °C

34 °C

Sud

18.5 Km/h

Dew point 22 °C

Umidità 88 %

Visibilità  10 Km

Il sole sorge alle ore 05:51

Il sole tramonta alle ore 20:05

Data e Ora Cielo e Fenomeni T °C DP °C Um. % Pres. hPa Vis. km Vento km/h
Oggi h: 03:55 sereno Sereno 24 22 88 1010 10 S 18.5
Oggi h: 02:55 sereno Sereno 24 22 88 1010 10 S 20.3
Oggi h: 01:55 sereno Sereno 24 22 88 1012 10 N 0
Oggi h: 00:55 sereno Sereno 24 22 88 1012 10 S 18.5
Ieri h: 23:55 sereno Sereno 24 22 88 1012 10 S 20.3
Ieri h: 22:55 sereno Sereno 25 22 83 1012 10 S 24
Ieri h: 21:55 sereno Sereno 25 21 78 1013 10 S 22.2
Ieri h: 20:55 sereno Sereno 25 21 78 1013 10 S 24
Ieri h: 19:55 sereno Sereno 27 21 69 1013 10 S 25.9
Ieri h: 17:55 sereno Sereno 30 14 37 1013 10 S 25.9
Ieri h: 16:55 sereno Sereno 32 12 29 1013 10 S 31.5
Ieri h: 15:55 sereno Sereno 33 13 29 1014 10 S 27.8
Ieri h: 14:55 sereno Sereno 33 14 31 1014 10 E 29.6
Ieri h: 13:55 sereno Sereno 33 13 29 1014 10 S 29.6
Ieri h: 12:55 sereno Sereno 34 15 32 1015 10 S/SE 24
Ieri h: 11:55 sereno Sereno 33 13 29 1015 10 S 18.5
Ieri h: 10:55 sereno Sereno 34 13 28 1015 10 S 11.1
Ieri h: 09:55 sereno Sereno 30 13 35 1016 10 N 3.7
Ieri h: 08:55 sereno Sereno 28 14 42 1016 10 N 9.3
Ieri h: 07:55 sereno Sereno 25 15 53 1016 10 N/NE 9.3
Ieri h: 06:55 sereno Sereno 22 13 56 1015 10 N/NO 7.4
Ieri h: 05:55 sereno Sereno 21 11 52 1015 10 N 5.5
Ieri h: 04:55 sereno Sereno 23 10 43 1015 10 N 7.4